Terminal Aerodrome Forecast
Issued by NWS Wakefield, VA

Home | Current Version | Previous Version | Text Only | Print | Product List | Glossary On
Versions: 1 2 3 4 5 6 7 8 9 10 11 12 13 14
499
FTUS41 KAKQ 241742
TAFSBY
TAF
KSBY 241742Z 2418/2518 15004KT P6SM FEW050
     FM242300 VRB03KT P6SM SKC
     FM251500 20008KT P6SM SCT050 SCT250=

USA.gov is the U.S. government's official web portal to all federal, state and local government web resources and services.